sensor_id;sensor_type;location;lat;lon;timestamp;temperature;humidity
18882;DHT22;9573;50.948;11.600;2024-01-10T00:00:47;-11.00;99.90
18882;DHT22;9573;50.948;11.600;2024-01-10T00:03:14;-11.00;99.90
18882;DHT22;9573;50.948;11.600;2024-01-10T00:05:42;-11.00;99.90
18882;DHT22;9573;50.948;11.600;2024-01-10T00:08:09;-11.00;99.90
18882;DHT22;9573;50.948;11.600;2024-01-10T00:10:37;-10.70;99.90
18882;DHT22;9573;50.948;11.600;2024-01-10T00:13:04;-11.00;99.90
18882;DHT22;9573;50.948;11.600;2024-01-10T00:15:31;-11.00;99.90
18882;DHT22;9573;50.948;11.600;2024-01-10T00:17:58;-11.10;99.90
18882;DHT22;9573;50.948;11.600;2024-01-10T00:20:26;-11.10;99.90
18882;DHT22;9573;50.948;11.600;2024-01-10T00:22:54;-10.10;99.90
18882;DHT22;9573;50.948;11.600;2024-01-10T00:25:21;-11.10;99.90
18882;DHT22;9573;50.948;11.600;2024-01-10T00:27:48;-11.10;99.90
18882;DHT22;9573;50.948;11.600;2024-01-10T00:30:15;-11.10;99.90
18882;DHT22;9573;50.948;11.600;2024-01-10T00:32:43;-11.20;99.90
18882;DHT22;9573;50.948;11.600;2024-01-10T00:35:10;-11.20;99.90
18882;DHT22;9573;50.948;11.600;2024-01-10T00:37:37;-11.30;99.90
18882;DHT22;9573;50.948;11.600;2024-01-10T00:40:07;-11.30;99.90
18882;DHT22;9573;50.948;11.600;2024-01-10T00:42:35;-11.30;99.90
18882;DHT22;9573;50.948;11.600;2024-01-10T00:45:02;-11.30;99.90
18882;DHT22;9573;50.948;11.600;2024-01-10T00:47:30;-11.20;99.90
18882;DHT22;9573;50.948;11.600;2024-01-10T00:49:57;-11.20;99.90
18882;DHT22;9573;50.948;11.600;2024-01-10T00:52:24;-11.10;99.90
18882;DHT22;9573;50.948;11.600;2024-01-10T00:54:52;-11.10;99.90
18882;DHT22;9573;50.948;11.600;2024-01-10T00:57:20;-11.20;99.90
18882;DHT22;9573;50.948;11.600;2024-01-10T00:59:47;-11.20;99.90
18882;DHT22;9573;50.948;11.600;2024-01-10T01:02:14;-11.20;99.90
18882;DHT22;9573;50.948;11.600;2024-01-10T01:04:41;-11.20;99.90
18882;DHT22;9573;50.948;11.600;2024-01-10T01:07:09;-11.20;99.90
18882;DHT22;9573;50.948;11.600;2024-01-10T01:09:36;-11.20;99.90
18882;DHT22;9573;50.948;11.600;2024-01-10T01:12:03;-11.30;99.90
18882;DHT22;9573;50.948;11.600;2024-01-10T01:14:32;-11.30;99.90
18882;DHT22;9573;50.948;11.600;2024-01-10T01:17:00;-11.30;99.90
18882;DHT22;9573;50.948;11.600;2024-01-10T01:19:27;-10.90;99.90
18882;DHT22;9573;50.948;11.600;2024-01-10T01:21:54;-11.20;99.90
18882;DHT22;9573;50.948;11.600;2024-01-10T01:24:21;-11.20;99.90
18882;DHT22;9573;50.948;11.600;2024-01-10T01:26:49;-11.10;99.90
18882;DHT22;9573;50.948;11.600;2024-01-10T01:29:16;-11.10;99.90
18882;DHT22;9573;50.948;11.600;2024-01-10T01:31:45;-11.20;99.90
18882;DHT22;9573;50.948;11.600;2024-01-10T01:34:12;-9.70;99.90
18882;DHT22;9573;50.948;11.600;2024-01-10T01:36:39;-11.20;99.90
18882;DHT22;9573;50.948;11.600;2024-01-10T01:39:06;-11.20;99.90
18882;DHT22;9573;50.948;11.600;2024-01-10T01:41:34;-11.20;99.90
18882;DHT22;9573;50.948;11.600;2024-01-10T01:44:01;-11.20;99.90
18882;DHT22;9573;50.948;11.600;2024-01-10T01:46:28;-11.20;99.90
18882;DHT22;9573;50.948;11.600;2024-01-10T01:48:57;-11.20;99.90
18882;DHT22;9573;50.948;11.600;2024-01-10T01:51:24;-11.10;99.90
18882;DHT22;9573;50.948;11.600;2024-01-10T01:53:53;-11.10;99.90
18882;DHT22;9573;50.948;11.600;2024-01-10T01:56:21;-11.10;99.90
18882;DHT22;9573;50.948;11.600;2024-01-10T01:58:50;-11.10;99.90
18882;DHT22;9573;50.948;11.600;2024-01-10T02:01:19;-11.10;99.90
18882;DHT22;9573;50.948;11.600;2024-01-10T02:03:47;-11.10;99.90
18882;DHT22;9573;50.948;11.600;2024-01-10T02:06:15;-11.10;99.90
18882;DHT22;9573;50.948;11.600;2024-01-10T02:08:42;-11.10;99.90
18882;DHT22;9573;50.948;11.600;2024-01-10T02:11:10;-11.10;99.90
18882;DHT22;9573;50.948;11.600;2024-01-10T02:13:37;-11.20;99.90
18882;DHT22;9573;50.948;11.600;2024-01-10T02:16:05;-11.20;99.90
18882;DHT22;9573;50.948;11.600;2024-01-10T02:18:32;-11.30;99.90
18882;DHT22;9573;50.948;11.600;2024-01-10T02:21:00;-12.70;99.90
18882;DHT22;9573;50.948;11.600;2024-01-10T02:23:29;-11.30;99.90
18882;DHT22;9573;50.948;11.600;2024-01-10T02:25:57;-11.20;99.90
18882;DHT22;9573;50.948;11.600;2024-01-10T02:28:25;-11.20;99.90
18882;DHT22;9573;50.948;11.600;2024-01-10T02:30:53;-11.20;99.90
18882;DHT22;9573;50.948;11.600;2024-01-10T02:33:21;-11.20;99.90
18882;DHT22;9573;50.948;11.600;2024-01-10T02:35:48;-11.20;99.90
18882;DHT22;9573;50.948;11.600;2024-01-10T02:38:16;-11.20;99.90
18882;DHT22;9573;50.948;11.600;2024-01-10T02:40:45;-11.10;99.90
18882;DHT22;9573;50.948;11.600;2024-01-10T02:43:14;-11.10;99.90
18882;DHT22;9573;50.948;11.600;2024-01-10T02:45:42;-11.00;99.90
18882;DHT22;9573;50.948;11.600;2024-01-10T02:48:09;-11.00;99.90
18882;DHT22;9573;50.948;11.600;2024-01-10T02:50:36;-11.00;99.90
18882;DHT22;9573;50.948;11.600;2024-01-10T02:53:04;-11.00;99.90
18882;DHT22;9573;50.948;11.600;2024-01-10T02:55:33;-11.00;99.90
18882;DHT22;9573;50.948;11.600;2024-01-10T02:58:01;-11.10;99.90
18882;DHT22;9573;50.948;11.600;2024-01-10T03:00:29;-11.00;99.90
18882;DHT22;9573;50.948;11.600;2024-01-10T03:02:56;-11.10;99.90
18882;DHT22;9573;50.948;11.600;2024-01-10T03:05:24;-9.50;99.90
18882;DHT22;9573;50.948;11.600;2024-01-10T03:07:51;-11.10;99.90
18882;DHT22;9573;50.948;11.600;2024-01-10T03:10:18;-10.30;99.90
18882;DHT22;9573;50.948;11.600;2024-01-10T03:12:45;-11.10;99.90
18882;DHT22;9573;50.948;11.600;2024-01-10T03:15:13;-11.10;99.90
18882;DHT22;9573;50.948;11.600;2024-01-10T03:17:41;-11.10;99.90
18882;DHT22;9573;50.948;11.600;2024-01-10T03:20:09;-11.10;99.90
18882;DHT22;9573;50.948;11.600;2024-01-10T03:22:37;-11.10;99.90
18882;DHT22;9573;50.948;11.600;2024-01-10T03:25:06;-11.10;99.90
18882;DHT22;9573;50.948;11.600;2024-01-10T03:27:36;-11.10;99.90
18882;DHT22;9573;50.948;11.600;2024-01-10T03:30:05;-11.10;99.90
18882;DHT22;9573;50.948;11.600;2024-01-10T03:32:33;-11.10;99.90
18882;DHT22;9573;50.948;11.600;2024-01-10T03:35:01;-11.10;99.90
18882;DHT22;9573;50.948;11.600;2024-01-10T03:37:29;-11.10;99.90
18882;DHT22;9573;50.948;11.600;2024-01-10T03:39:56;-11.10;99.90
18882;DHT22;9573;50.948;11.600;2024-01-10T03:42:24;-11.10;99.90
18882;DHT22;9573;50.948;11.600;2024-01-10T03:44:54;-11.20;99.90
18882;DHT22;9573;50.948;11.600;2024-01-10T03:47:21;-11.20;99.90
18882;DHT22;9573;50.948;11.600;2024-01-10T03:49:48;-11.20;99.90
18882;DHT22;9573;50.948;11.600;2024-01-10T03:52:16;-11.20;99.90
18882;DHT22;9573;50.948;11.600;2024-01-10T03:54:44;-11.20;99.90
18882;DHT22;9573;50.948;11.600;2024-01-10T03:57:12;-11.20;99.90
18882;DHT22;9573;50.948;11.600;2024-01-10T03:59:39;-11.20;99.90
18882;DHT22;9573;50.948;11.600;2024-01-10T04:02:07;-11.30;99.90
18882;DHT22;9573;50.948;11.600;2024-01-10T04:04:37;-11.30;99.90
18882;DHT22;9573;50.948;11.600;2024-01-10T04:07:04;-11.30;99.90
18882;DHT22;9573;50.948;11.600;2024-01-10T04:09:33;-11.30;99.90
18882;DHT22;9573;50.948;11.600;2024-01-10T04:12:00;-11.20;99.90
18882;DHT22;9573;50.948;11.600;2024-01-10T04:14:27;-11.20;99.90
18882;DHT22;9573;50.948;11.600;2024-01-10T04:16:54;-11.30;99.90
18882;DHT22;9573;50.948;11.600;2024-01-10T04:19:21;-11.20;99.90
18882;DHT22;9573;50.948;11.600;2024-01-10T04:21:49;-11.20;99.90
18882;DHT22;9573;50.948;11.600;2024-01-10T04:24:16;-11.20;99.90
18882;DHT22;9573;50.948;11.600;2024-01-10T04:26:44;-11.20;99.90
18882;DHT22;9573;50.948;11.600;2024-01-10T04:29:11;-11.30;99.90
18882;DHT22;9573;50.948;11.600;2024-01-10T04:31:38;-11.10;99.90
18882;DHT22;9573;50.948;11.600;2024-01-10T04:34:06;-11.10;99.90
18882;DHT22;9573;50.948;11.600;2024-01-10T04:36:33;-11.10;99.90
18882;DHT22;9573;50.948;11.600;2024-01-10T04:39:00;-11.10;99.90
18882;DHT22;9573;50.948;11.600;2024-01-10T04:41:28;-11.10;99.90
18882;DHT22;9573;50.948;11.600;2024-01-10T04:43:56;-11.00;99.90
18882;DHT22;9573;50.948;11.600;2024-01-10T04:46:23;-11.00;99.90
18882;DHT22;9573;50.948;11.600;2024-01-10T04:48:51;-11.00;99.90
18882;DHT22;9573;50.948;11.600;2024-01-10T04:51:18;-11.00;99.90
18882;DHT22;9573;50.948;11.600;2024-01-10T04:53:45;-11.00;99.90
18882;DHT22;9573;50.948;11.600;2024-01-10T04:56:13;-11.00;99.90
18882;DHT22;9573;50.948;11.600;2024-01-10T04:58:40;-11.00;99.90
18882;DHT22;9573;50.948;11.600;2024-01-10T05:01:08;-11.00;99.90
18882;DHT22;9573;50.948;11.600;2024-01-10T05:03:35;-11.00;99.90
18882;DHT22;9573;50.948;11.600;2024-01-10T05:06:03;-11.10;99.90
18882;DHT22;9573;50.948;11.600;2024-01-10T05:08:30;-11.10;99.90
18882;DHT22;9573;50.948;11.600;2024-01-10T05:10:57;-11.10;99.90
18882;DHT22;9573;50.948;11.600;2024-01-10T05:13:24;-11.00;99.90
18882;DHT22;9573;50.948;11.600;2024-01-10T05:15:51;-11.10;99.90
18882;DHT22;9573;50.948;11.600;2024-01-10T05:18:21;-11.10;99.90
18882;DHT22;9573;50.948;11.600;2024-01-10T05:20:48;-11.10;99.90
18882;DHT22;9573;50.948;11.600;2024-01-10T05:23:15;-11.20;99.90
18882;DHT22;9573;50.948;11.600;2024-01-10T05:25:42;-11.20;99.90
18882;DHT22;9573;50.948;11.600;2024-01-10T05:28:09;-11.10;99.90
18882;DHT22;9573;50.948;11.600;2024-01-10T05:30:36;-11.20;99.90
18882;DHT22;9573;50.948;11.600;2024-01-10T05:33:03;-11.20;99.90
18882;DHT22;9573;50.948;11.600;2024-01-10T05:35:32;-11.20;99.90
18882;DHT22;9573;50.948;11.600;2024-01-10T05:38:01;-10.20;99.90
18882;DHT22;9573;50.948;11.600;2024-01-10T05:40:29;-11.10;99.90
18882;DHT22;9573;50.948;11.600;2024-01-10T05:42:57;-11.10;99.90
18882;DHT22;9573;50.948;11.600;2024-01-10T05:45:25;-11.10;99.90
18882;DHT22;9573;50.948;11.600;2024-01-10T05:47:52;-11.20;99.90
18882;DHT22;9573;50.948;11.600;2024-01-10T05:50:19;-11.20;99.90
18882;DHT22;9573;50.948;11.600;2024-01-10T05:52:48;-11.20;99.90
18882;DHT22;9573;50.948;11.600;2024-01-10T05:55:15;-11.20;99.90
18882;DHT22;9573;50.948;11.600;2024-01-10T05:57:42;-11.20;99.90
18882;DHT22;9573;50.948;11.600;2024-01-10T06:00:10;-11.10;99.90
18882;DHT22;9573;50.948;11.600;2024-01-10T06:02:41;-11.10;99.90
18882;DHT22;9573;50.948;11.600;2024-01-10T06:05:09;-11.00;99.90
18882;DHT22;9573;50.948;11.600;2024-01-10T06:07:37;-11.00;99.90
18882;DHT22;9573;50.948;11.600;2024-01-10T06:10:07;-10.80;99.90
18882;DHT22;9573;50.948;11.600;2024-01-10T06:12:35;-10.80;99.90
18882;DHT22;9573;50.948;11.600;2024-01-10T06:15:04;-10.70;99.90
18882;DHT22;9573;50.948;11.600;2024-01-10T06:17:33;-10.60;99.90
18882;DHT22;9573;50.948;11.600;2024-01-10T06:20:00;-10.50;99.90
18882;DHT22;9573;50.948;11.600;2024-01-10T06:22:29;-10.40;99.90
18882;DHT22;9573;50.948;11.600;2024-01-10T06:24:56;-10.40;99.90
18882;DHT22;9573;50.948;11.600;2024-01-10T06:27:25;-10.30;99.90
18882;DHT22;9573;50.948;11.600;2024-01-10T06:29:52;-10.30;99.90
18882;DHT22;9573;50.948;11.600;2024-01-10T06:32:19;-10.30;99.90
18882;DHT22;9573;50.948;11.600;2024-01-10T06:34:46;-10.30;99.90
18882;DHT22;9573;50.948;11.600;2024-01-10T06:37:13;-10.20;99.90
18882;DHT22;9573;50.948;11.600;2024-01-10T06:39:41;-10.20;99.90
18882;DHT22;9573;50.948;11.600;2024-01-10T06:42:09;-10.20;99.90
18882;DHT22;9573;50.948;11.600;2024-01-10T06:44:38;-10.10;99.90
18882;DHT22;9573;50.948;11.600;2024-01-10T06:47:06;-10.00;99.90
18882;DHT22;9573;50.948;11.600;2024-01-10T06:49:33;-10.00;99.90
18882;DHT22;9573;50.948;11.600;2024-01-10T06:52:00;-9.90;99.90
18882;DHT22;9573;50.948;11.600;2024-01-10T06:54:27;-10.00;99.90
18882;DHT22;9573;50.948;11.600;2024-01-10T06:56:54;-9.90;99.90
18882;DHT22;9573;50.948;11.600;2024-01-10T06:59:22;-9.90;99.90
18882;DHT22;9573;50.948;11.600;2024-01-10T07:01:53;-9.80;99.90
18882;DHT22;9573;50.948;11.600;2024-01-10T07:04:21;-9.70;99.90
18882;DHT22;9573;50.948;11.600;2024-01-10T07:06:49;-9.70;99.90
18882;DHT22;9573;50.948;11.600;2024-01-10T07:09:16;-9.60;99.90
18882;DHT22;9573;50.948;11.600;2024-01-10T07:11:45;-9.50;99.90
18882;DHT22;9573;50.948;11.600;2024-01-10T07:14:13;-9.50;99.90
18882;DHT22;9573;50.948;11.600;2024-01-10T07:16:40;-9.50;99.90
18882;DHT22;9573;50.948;11.600;2024-01-10T07:19:12;-9.50;99.90
18882;DHT22;9573;50.948;11.600;2024-01-10T07:21:40;-9.50;99.90
18882;DHT22;9573;50.948;11.600;2024-01-10T07:24:07;-9.40;99.90
18882;DHT22;9573;50.948;11.600;2024-01-10T07:26:35;-9.40;99.90
18882;DHT22;9573;50.948;11.600;2024-01-10T07:29:03;-9.30;99.90
18882;DHT22;9573;50.948;11.600;2024-01-10T07:31:33;-9.30;99.90
18882;DHT22;9573;50.948;11.600;2024-01-10T07:34:01;-9.20;99.90
18882;DHT22;9573;50.948;11.600;2024-01-10T07:36:32;-9.20;99.90
18882;DHT22;9573;50.948;11.600;2024-01-10T07:39:00;-9.10;99.90
18882;DHT22;9573;50.948;11.600;2024-01-10T07:41:27;-9.10;99.90
18882;DHT22;9573;50.948;11.600;2024-01-10T07:43:54;-9.00;99.90
18882;DHT22;9573;50.948;11.600;2024-01-10T07:46:21;-8.90;99.90
18882;DHT22;9573;50.948;11.600;2024-01-10T07:48:49;-8.80;99.90
18882;DHT22;9573;50.948;11.600;2024-01-10T07:51:16;-8.70;99.90
18882;DHT22;9573;50.948;11.600;2024-01-10T07:53:44;-7.30;99.90
18882;DHT22;9573;50.948;11.600;2024-01-10T07:56:12;-8.50;99.90
18882;DHT22;9573;50.948;11.600;2024-01-10T07:58:40;-8.40;99.90
18882;DHT22;9573;50.948;11.600;2024-01-10T08:01:07;-8.30;99.90
18882;DHT22;9573;50.948;11.600;2024-01-10T08:03:36;-8.20;99.90
18882;DHT22;9573;50.948;11.600;2024-01-10T08:06:03;-8.10;99.90
18882;DHT22;9573;50.948;11.600;2024-01-10T08:08:31;-8.10;99.90
18882;DHT22;9573;50.948;11.600;2024-01-10T08:11:00;-8.10;99.90
18882;DHT22;9573;50.948;11.600;2024-01-10T08:13:27;-8.00;99.90
18882;DHT22;9573;50.948;11.600;2024-01-10T08:15:55;-8.00;99.90
18882;DHT22;9573;50.948;11.600;2024-01-10T08:18:22;-8.00;99.90
18882;DHT22;9573;50.948;11.600;2024-01-10T08:20:49;-8.00;99.90
18882;DHT22;9573;50.948;11.600;2024-01-10T08:23:17;-8.00;99.90
18882;DHT22;9573;50.948;11.600;2024-01-10T08:25:44;-7.90;99.90
18882;DHT22;9573;50.948;11.600;2024-01-10T08:28:12;-7.80;99.90
18882;DHT22;9573;50.948;11.600;2024-01-10T08:30:40;-7.70;99.90
18882;DHT22;9573;50.948;11.600;2024-01-10T08:33:07;-7.70;99.90
18882;DHT22;9573;50.948;11.600;2024-01-10T08:35:34;-7.70;99.90
18882;DHT22;9573;50.948;11.600;2024-01-10T08:38:01;-7.70;99.90
18882;DHT22;9573;50.948;11.600;2024-01-10T08:40:30;-7.60;99.90
18882;DHT22;9573;50.948;11.600;2024-01-10T08:42:57;-7.50;99.90
18882;DHT22;9573;50.948;11.600;2024-01-10T08:45:25;-7.30;99.90
18882;DHT22;9573;50.948;11.600;2024-01-10T08:47:52;-7.00;99.90
18882;DHT22;9573;50.948;11.600;2024-01-10T08:50:20;-6.60;99.90
18882;DHT22;9573;50.948;11.600;2024-01-10T08:52:48;-6.30;99.90
18882;DHT22;9573;50.948;11.600;2024-01-10T08:55:15;-5.90;99.90
18882;DHT22;9573;50.948;11.600;2024-01-10T08:57:43;-5.70;99.90
18882;DHT22;9573;50.948;11.600;2024-01-10T09:00:11;-5.30;99.90
18882;DHT22;9573;50.948;11.600;2024-01-10T09:02:42;-4.50;99.90
18882;DHT22;9573;50.948;11.600;2024-01-10T09:05:09;-3.80;99.90
18882;DHT22;9573;50.948;11.600;2024-01-10T09:07:36;-3.00;99.90
18882;DHT22;9573;50.948;11.600;2024-01-10T09:10:04;-1.90;99.90
18882;DHT22;9573;50.948;11.600;2024-01-10T09:12:33;-0.90;99.90
18882;DHT22;9573;50.948;11.600;2024-01-10T09:15:00;0.30;99.90
18882;DHT22;9573;50.948;11.600;2024-01-10T09:17:28;1.40;99.90
18882;DHT22;9573;50.948;11.600;2024-01-10T09:19:56;2.30;99.90
18882;DHT22;9573;50.948;11.600;2024-01-10T09:22:24;2.30;99.90
18882;DHT22;9573;50.948;11.600;2024-01-10T09:24:51;2.10;99.90
18882;DHT22;9573;50.948;11.600;2024-01-10T09:27:18;2.00;99.90
18882;DHT22;9573;50.948;11.600;2024-01-10T09:29:45;2.00;99.90
18882;DHT22;9573;50.948;11.600;2024-01-10T09:32:12;1.70;99.90
18882;DHT22;9573;50.948;11.600;2024-01-10T09:34:40;1.50;99.90
18882;DHT22;9573;50.948;11.600;2024-01-10T09:37:08;1.10;99.90
18882;DHT22;9573;50.948;11.600;2024-01-10T09:39:35;0.90;99.90
18882;DHT22;9573;50.948;11.600;2024-01-10T09:42:03;0.60;99.90
18882;DHT22;9573;50.948;11.600;2024-01-10T09:44:33;0.10;99.90
18882;DHT22;9573;50.948;11.600;2024-01-10T09:47:00;0.10;99.90
18882;DHT22;9573;50.948;11.600;2024-01-10T09:49:28;0.40;99.90
18882;DHT22;9573;50.948;11.600;2024-01-10T09:51:58;0.30;99.90
18882;DHT22;9573;50.948;11.600;2024-01-10T09:54:29;0.20;99.90
18882;DHT22;9573;50.948;11.600;2024-01-10T09:56:57;0.00;99.90
18882;DHT22;9573;50.948;11.600;2024-01-10T09:59:24;-0.20;99.90
18882;DHT22;9573;50.948;11.600;2024-01-10T10:01:52;-0.40;99.90
18882;DHT22;9573;50.948;11.600;2024-01-10T10:04:20;-0.60;99.90
18882;DHT22;9573;50.948;11.600;2024-01-10T10:06:58;-0.80;99.90
18882;DHT22;9573;50.948;11.600;2024-01-10T10:09:28;-0.60;99.90
18882;DHT22;9573;50.948;11.600;2024-01-10T10:11:56;-0.60;99.90
18882;DHT22;9573;50.948;11.600;2024-01-10T10:14:24;-0.40;99.90
18882;DHT22;9573;50.948;11.600;2024-01-10T10:16:55;0.00;99.90
18882;DHT22;9573;50.948;11.600;2024-01-10T10:19:25;0.50;99.90
18882;DHT22;9573;50.948;11.600;2024-01-10T10:21:52;1.20;99.90
18882;DHT22;9573;50.948;11.600;2024-01-10T10:24:20;1.50;99.90
18882;DHT22;9573;50.948;11.600;2024-01-10T10:26:49;1.50;99.90
18882;DHT22;9573;50.948;11.600;2024-01-10T10:29:17;1.90;99.90
18882;DHT22;9573;50.948;11.600;2024-01-10T10:31:47;2.40;99.90
18882;DHT22;9573;50.948;11.600;2024-01-10T10:34:21;3.00;99.70
18882;DHT22;9573;50.948;11.600;2024-01-10T10:36:49;3.80;98.00
18882;DHT22;9573;50.948;11.600;2024-01-10T10:39:16;4.30;97.20
18882;DHT22;9573;50.948;11.600;2024-01-10T10:41:44;4.60;95.50
18882;DHT22;9573;50.948;11.600;2024-01-10T10:44:16;4.90;95.20
18882;DHT22;9573;50.948;11.600;2024-01-10T10:46:49;5.30;95.50
18882;DHT22;9573;50.948;11.600;2024-01-10T10:49:26;5.70;94.30
18882;DHT22;9573;50.948;11.600;2024-01-10T10:51:59;6.10;93.90
18882;DHT22;9573;50.948;11.600;2024-01-10T10:54:29;6.40;92.60
18882;DHT22;9573;50.948;11.600;2024-01-10T10:56:58;6.60;92.20
18882;DHT22;9573;50.948;11.600;2024-01-10T10:59:29;6.60;91.50
18882;DHT22;9573;50.948;11.600;2024-01-10T11:01:58;6.60;88.90
18882;DHT22;9573;50.948;11.600;2024-01-10T11:04:25;6.60;87.40
18882;DHT22;9573;50.948;11.600;2024-01-10T11:06:53;6.50;88.00
18882;DHT22;9573;50.948;11.600;2024-01-10T11:09:21;6.50;87.80
18882;DHT22;9573;50.948;11.600;2024-01-10T11:12:05;6.60;88.10
18882;DHT22;9573;50.948;11.600;2024-01-10T11:14:58;6.70;85.90
18882;DHT22;9573;50.948;11.600;2024-01-10T11:21:06;6.70;84.60
18882;DHT22;9573;50.948;11.600;2024-01-10T11:23:45;6.50;81.80
18882;DHT22;9573;50.948;11.600;2024-01-10T11:26:15;6.00;83.70
18882;DHT22;9573;50.948;11.600;2024-01-10T11:28:42;5.80;83.60
18882;DHT22;9573;50.948;11.600;2024-01-10T11:31:13;5.60;83.10
18882;DHT22;9573;50.948;11.600;2024-01-10T11:33:42;5.30;83.70
18882;DHT22;9573;50.948;11.600;2024-01-10T11:36:14;5.10;84.30
18882;DHT22;9573;50.948;11.600;2024-01-10T11:38:43;5.00;84.90
18882;DHT22;9573;50.948;11.600;2024-01-10T11:41:15;4.70;85.50
18882;DHT22;9573;50.948;11.600;2024-01-10T11:44:27;4.60;86.10
18882;DHT22;9573;50.948;11.600;2024-01-10T11:46:59;4.40;87.60
18882;DHT22;9573;50.948;11.600;2024-01-10T11:49:26;4.40;87.20
18882;DHT22;9573;50.948;11.600;2024-01-10T11:51:55;4.20;88.10
18882;DHT22;9573;50.948;11.600;2024-01-10T11:54:43;4.00;88.70
18882;DHT22;9573;50.948;11.600;2024-01-10T11:57:12;4.00;89.40
18882;DHT22;9573;50.948;11.600;2024-01-10T11:59:50;4.00;89.90
18882;DHT22;9573;50.948;11.600;2024-01-10T12:02:23;3.90;90.30
18882;DHT22;9573;50.948;11.600;2024-01-10T12:04:52;4.00;90.20
18882;DHT22;9573;50.948;11.600;2024-01-10T12:07:20;4.10;90.30
18882;DHT22;9573;50.948;11.600;2024-01-10T12:09:47;4.10;90.40
18882;DHT22;9573;50.948;11.600;2024-01-10T12:12:15;4.20;90.30
18882;DHT22;9573;50.948;11.600;2024-01-10T12:14:43;4.10;90.00
18882;DHT22;9573;50.948;11.600;2024-01-10T12:17:12;3.90;90.50
18882;DHT22;9573;50.948;11.600;2024-01-10T12:19:40;3.70;91.00
18882;DHT22;9573;50.948;11.600;2024-01-10T12:22:10;3.80;91.10
18882;DHT22;9573;50.948;11.600;2024-01-10T12:24:43;3.80;91.20
18882;DHT22;9573;50.948;11.600;2024-01-10T12:27:16;3.60;91.70
18882;DHT22;9573;50.948;11.600;2024-01-10T12:29:48;3.50;91.60
18882;DHT22;9573;50.948;11.600;2024-01-10T12:32:19;3.20;91.90
18882;DHT22;9573;50.948;11.600;2024-01-10T12:34:53;3.00;92.20
18882;DHT22;9573;50.948;11.600;2024-01-10T12:37:21;3.00;92.50
18882;DHT22;9573;50.948;11.600;2024-01-10T12:39:49;2.80;92.70
18882;DHT22;9573;50.948;11.600;2024-01-10T12:42:18;2.60;93.20
18882;DHT22;9573;50.948;11.600;2024-01-10T12:44:47;2.30;93.60
18882;DHT22;9573;50.948;11.600;2024-01-10T12:47:18;2.00;94.10
18882;DHT22;9573;50.948;11.600;2024-01-10T12:49:46;1.80;95.00
18882;DHT22;9573;50.948;11.600;2024-01-10T12:52:15;1.70;95.20
18882;DHT22;9573;50.948;11.600;2024-01-10T12:54:42;1.60;95.40
18882;DHT22;9573;50.948;11.600;2024-01-10T12:57:09;1.50;95.60
18882;DHT22;9573;50.948;11.600;2024-01-10T12:59:37;1.40;95.90
18882;DHT22;9573;50.948;11.600;2024-01-10T13:02:04;1.40;96.00
18882;DHT22;9573;50.948;11.600;2024-01-10T13:04:32;1.30;96.20
18882;DHT22;9573;50.948;11.600;2024-01-10T13:06:59;1.20;96.40
18882;DHT22;9573;50.948;11.600;2024-01-10T13:09:31;1.00;96.90
18882;DHT22;9573;50.948;11.600;2024-01-10T13:11:58;1.00;97.30
18882;DHT22;9573;50.948;11.600;2024-01-10T13:14:25;1.10;97.50
18882;DHT22;9573;50.948;11.600;2024-01-10T13:16:53;1.10;97.30
18882;DHT22;9573;50.948;11.600;2024-01-10T13:19:20;1.00;97.60
18882;DHT22;9573;50.948;11.600;2024-01-10T13:21:48;0.80;97.40
18882;DHT22;9573;50.948;11.600;2024-01-10T13:24:15;0.70;97.70
18882;DHT22;9573;50.948;11.600;2024-01-10T13:26:43;0.60;98.10
18882;DHT22;9573;50.948;11.600;2024-01-10T13:29:11;0.50;98.10
18882;DHT22;9573;50.948;11.600;2024-01-10T13:31:39;0.50;98.60
18882;DHT22;9573;50.948;11.600;2024-01-10T13:34:06;0.30;98.90
18882;DHT22;9573;50.948;11.600;2024-01-10T13:36:34;0.20;99.30
18882;DHT22;9573;50.948;11.600;2024-01-10T13:39:01;0.10;99.60
18882;DHT22;9573;50.948;11.600;2024-01-10T13:41:29;0.10;99.60
18882;DHT22;9573;50.948;11.600;2024-01-10T13:43:57;-0.10;99.80
18882;DHT22;9573;50.948;11.600;2024-01-10T13:46:25;-0.10;99.90
18882;DHT22;9573;50.948;11.600;2024-01-10T13:48:52;-0.30;99.90
18882;DHT22;9573;50.948;11.600;2024-01-10T13:51:19;-0.50;99.90
18882;DHT22;9573;50.948;11.600;2024-01-10T13:53:46;-0.60;99.90
18882;DHT22;9573;50.948;11.600;2024-01-10T13:56:14;0.30;99.90
18882;DHT22;9573;50.948;11.600;2024-01-10T13:58:41;-0.90;99.90
18882;DHT22;9573;50.948;11.600;2024-01-10T14:01:09;-0.90;99.90
18882;DHT22;9573;50.948;11.600;2024-01-10T14:03:36;-1.00;99.90
18882;DHT22;9573;50.948;11.600;2024-01-10T14:06:04;-1.20;99.90
18882;DHT22;9573;50.948;11.600;2024-01-10T14:08:32;-1.40;99.90
18882;DHT22;9573;50.948;11.600;2024-01-10T14:10:59;-1.50;99.90
18882;DHT22;9573;50.948;11.600;2024-01-10T14:13:26;-1.50;99.90
18882;DHT22;9573;50.948;11.600;2024-01-10T14:15:54;-1.80;99.90
18882;DHT22;9573;50.948;11.600;2024-01-10T14:18:22;-1.90;99.90
18882;DHT22;9573;50.948;11.600;2024-01-10T14:20:49;-2.00;99.90
18882;DHT22;9573;50.948;11.600;2024-01-10T14:23:16;-2.00;99.90
18882;DHT22;9573;50.948;11.600;2024-01-10T14:25:44;-2.10;99.90
18882;DHT22;9573;50.948;11.600;2024-01-10T14:28:11;-2.30;99.90
18882;DHT22;9573;50.948;11.600;2024-01-10T14:30:38;-2.70;99.90
18882;DHT22;9573;50.948;11.600;2024-01-10T14:33:05;-3.10;99.90
18882;DHT22;9573;50.948;11.600;2024-01-10T14:35:33;-3.60;99.90
18882;DHT22;9573;50.948;11.600;2024-01-10T14:38:00;-3.80;99.90
18882;DHT22;9573;50.948;11.600;2024-01-10T14:40:29;-4.00;99.90
18882;DHT22;9573;50.948;11.600;2024-01-10T14:42:56;-4.20;99.90
18882;DHT22;9573;50.948;11.600;2024-01-10T14:45:24;-4.30;99.90
18882;DHT22;9573;50.948;11.600;2024-01-10T14:47:52;-4.40;99.90
18882;DHT22;9573;50.948;11.600;2024-01-10T14:50:19;-4.50;99.90
18882;DHT22;9573;50.948;11.600;2024-01-10T14:52:48;-4.50;99.90
18882;DHT22;9573;50.948;11.600;2024-01-10T14:55:16;-4.60;99.90
18882;DHT22;9573;50.948;11.600;2024-01-10T14:57:43;-4.70;99.90
18882;DHT22;9573;50.948;11.600;2024-01-10T15:00:11;-4.70;99.90
18882;DHT22;9573;50.948;11.600;2024-01-10T15:02:40;-4.80;99.90
18882;DHT22;9573;50.948;11.600;2024-01-10T15:05:07;-4.90;99.90
18882;DHT22;9573;50.948;11.600;2024-01-10T15:07:35;-4.90;99.90
18882;DHT22;9573;50.948;11.600;2024-01-10T15:10:04;-5.00;99.90
18882;DHT22;9573;50.948;11.600;2024-01-10T15:12:33;-5.00;99.90
18882;DHT22;9573;50.948;11.600;2024-01-10T15:15:00;-5.00;99.90
18882;DHT22;9573;50.948;11.600;2024-01-10T15:17:27;-5.10;99.90
18882;DHT22;9573;50.948;11.600;2024-01-10T15:19:55;-5.10;99.90
18882;DHT22;9573;50.948;11.600;2024-01-10T15:22:23;-5.20;99.90
18882;DHT22;9573;50.948;11.600;2024-01-10T15:24:50;-5.20;99.90
18882;DHT22;9573;50.948;11.600;2024-01-10T15:27:19;-5.20;99.90
18882;DHT22;9573;50.948;11.600;2024-01-10T15:29:46;-5.30;99.90
18882;DHT22;9573;50.948;11.600;2024-01-10T15:32:13;-5.40;99.90
18882;DHT22;9573;50.948;11.600;2024-01-10T15:34:41;-5.40;99.90
18882;DHT22;9573;50.948;11.600;2024-01-10T15:37:09;-5.50;99.90